createdAt,value
2022-09-09T00:00:14.430Z,0.00
2022-09-09T00:01:14.456Z,0.00
2022-09-09T00:02:14.644Z,0.00
2022-09-09T00:03:14.676Z,0.00
2022-09-09T00:04:14.537Z,0.00
2022-09-09T00:05:14.562Z,0.00
2022-09-09T00:06:14.589Z,0.00
2022-09-09T00:07:14.613Z,0.00
2022-09-09T00:08:14.641Z,0.00
2022-09-09T00:09:14.669Z,0.00
2022-09-09T00:10:14.693Z,0.00
2022-09-09T00:11:14.719Z,0.00
2022-09-09T00:12:14.745Z,0.00
2022-09-09T00:13:14.771Z,0.00
2022-09-09T00:14:14.794Z,0.00
2022-09-09T00:15:14.823Z,0.00
2022-09-09T00:16:15.010Z,0.00
2022-09-09T00:17:14.877Z,0.00
2022-09-09T00:18:14.906Z,0.00
2022-09-09T00:19:14.935Z,0.00
2022-09-09T00:20:14.960Z,0.00
2022-09-09T00:21:14.978Z,0.00
2022-09-09T00:22:15.004Z,0.00
2022-09-09T00:23:15.036Z,0.00
2022-09-09T00:24:15.060Z,0.00
2022-09-09T00:25:15.085Z,0.00
2022-09-09T00:26:15.111Z,0.00
2022-09-09T00:27:15.145Z,0.00
2022-09-09T00:28:15.166Z,0.00
2022-09-09T00:29:15.190Z,0.00
2022-09-09T00:30:15.223Z,0.00
2022-09-09T00:31:15.307Z,0.00
2022-09-09T00:32:15.268Z,0.00
2022-09-09T00:33:15.295Z,0.00
2022-09-09T00:34:15.321Z,0.00
2022-09-09T00:35:15.345Z,0.00
2022-09-09T00:36:15.377Z,0.00
2022-09-09T00:37:15.402Z,0.00
2022-09-09T00:38:15.426Z,0.00
2022-09-09T00:39:15.453Z,0.00
2022-09-09T00:40:15.567Z,0.00
2022-09-09T00:41:15.506Z,0.00
2022-09-09T00:42:15.532Z,0.00
2022-09-09T00:43:15.557Z,0.00
2022-09-09T00:44:15.591Z,0.00
2022-09-09T00:45:15.608Z,0.00
2022-09-09T00:46:15.652Z,0.00
2022-09-09T00:47:15.659Z,0.00
2022-09-09T00:48:15.691Z,0.00
2022-09-09T00:49:15.714Z,0.00
2022-09-09T00:50:15.739Z,0.00
2022-09-09T00:51:15.767Z,0.00
2022-09-09T00:52:15.796Z,0.00
2022-09-09T00:53:15.821Z,0.00
2022-09-09T00:54:15.848Z,0.00
2022-09-09T00:55:15.874Z,0.00
2022-09-09T00:56:15.897Z,0.00
2022-09-09T00:57:15.925Z,0.00
2022-09-09T00:58:15.953Z,0.00
2022-09-09T00:59:15.979Z,0.00
2022-09-09T01:00:16.010Z,0.00
2022-09-09T01:01:16.182Z,0.00
2022-09-09T01:02:16.084Z,0.00
2022-09-09T01:03:16.086Z,0.00
2022-09-09T01:04:16.111Z,0.00
2022-09-09T01:05:16.136Z,0.00
2022-09-09T01:06:16.163Z,0.00
2022-09-09T01:07:16.190Z,0.00
2022-09-09T01:08:16.221Z,0.00
2022-09-09T01:09:16.238Z,0.00
2022-09-09T01:10:16.268Z,0.00
2022-09-09T01:11:16.297Z,0.00
2022-09-09T01:12:16.325Z,0.00
2022-09-09T01:13:16.346Z,0.00
2022-09-09T01:14:16.377Z,0.00
2022-09-09T01:15:16.401Z,0.00
2022-09-09T01:16:16.453Z,0.00
2022-09-09T01:17:16.457Z,0.00
2022-09-09T01:18:16.481Z,0.00
2022-09-09T01:19:16.510Z,0.00
2022-09-09T01:20:16.541Z,0.00
2022-09-09T01:21:16.558Z,0.00
2022-09-09T01:22:16.588Z,0.00
2022-09-09T01:23:16.613Z,0.00
2022-09-09T01:24:16.643Z,0.00
2022-09-09T01:25:16.672Z,0.00
2022-09-09T01:26:16.694Z,0.00
2022-09-09T01:27:16.720Z,0.00
2022-09-09T01:28:16.745Z,0.00
2022-09-09T01:29:16.773Z,0.00
2022-09-09T01:30:16.798Z,0.00
2022-09-09T01:31:16.864Z,0.00
2022-09-09T01:32:16.852Z,0.00
2022-09-09T01:33:16.879Z,0.00
2022-09-09T01:34:16.905Z,0.00
2022-09-09T01:35:16.934Z,0.00
2022-09-09T01:36:16.976Z,0.00
2022-09-09T01:37:16.989Z,0.00
2022-09-09T01:38:17.011Z,0.00
2022-09-09T01:39:17.043Z,0.00
2022-09-09T01:40:17.147Z,0.00
2022-09-09T01:41:17.098Z,0.00
2022-09-09T01:42:17.116Z,0.00
2022-09-09T01:43:17.146Z,0.00
2022-09-09T01:44:17.169Z,0.00
2022-09-09T01:45:17.201Z,0.00
2022-09-09T01:46:17.260Z,0.00
2022-09-09T01:47:17.251Z,0.00
2022-09-09T01:48:17.277Z,0.00
2022-09-09T01:49:17.300Z,0.00
2022-09-09T01:50:17.331Z,0.00
2022-09-09T01:51:17.356Z,0.00
2022-09-09T01:52:17.384Z,0.00
2022-09-09T01:53:17.412Z,0.00
2022-09-09T01:54:17.431Z,0.00
2022-09-09T01:55:17.462Z,0.00
2022-09-09T01:56:17.545Z,0.00
2022-09-09T01:57:17.513Z,0.00
2022-09-09T01:58:17.538Z,0.00
2022-09-09T01:59:17.567Z,0.00
2022-09-09T02:00:17.597Z,0.00
2022-09-09T02:01:17.692Z,0.00
2022-09-09T02:02:17.709Z,0.00
2022-09-09T02:03:17.669Z,0.00
2022-09-09T02:04:17.703Z,0.00
2022-09-09T02:05:17.727Z,0.00
2022-09-09T02:06:17.755Z,0.00
2022-09-09T02:07:17.779Z,0.00
2022-09-09T02:08:17.805Z,0.00
2022-09-09T02:09:17.832Z,0.00
2022-09-09T02:10:17.857Z,0.00
2022-09-09T02:11:17.889Z,0.00
2022-09-09T02:12:17.913Z,0.00
2022-09-09T02:13:17.938Z,0.00
2022-09-09T02:14:17.965Z,0.00
2022-09-09T02:15:17.993Z,0.00
2022-09-09T02:16:18.077Z,0.00
2022-09-09T02:17:18.039Z,0.00
2022-09-09T02:18:18.088Z,0.00
2022-09-09T02:19:18.098Z,0.00
2022-09-09T02:20:18.201Z,0.00
2022-09-09T02:21:18.149Z,0.00
2022-09-09T02:22:18.175Z,0.00
2022-09-09T02:23:18.232Z,0.00
2022-09-09T02:24:18.227Z,0.00
2022-09-09T02:25:18.253Z,0.00
2022-09-09T02:26:18.282Z,0.00
2022-09-09T02:27:18.306Z,0.00
2022-09-09T02:28:18.332Z,0.00
2022-09-09T02:29:18.363Z,0.00
2022-09-09T02:30:18.392Z,0.00
2022-09-09T02:31:18.411Z,0.00
2022-09-09T02:32:18.440Z,0.00
2022-09-09T02:33:18.468Z,0.00
2022-09-09T02:34:18.505Z,0.00
2022-09-09T02:35:18.519Z,0.00
2022-09-09T02:36:18.540Z,0.00
2022-09-09T02:37:18.568Z,0.00
2022-09-09T02:38:18.597Z,0.00
2022-09-09T02:39:18.632Z,0.00
2022-09-09T02:40:18.701Z,0.00
2022-09-09T02:41:18.677Z,0.00
2022-09-09T02:42:18.705Z,0.00
2022-09-09T02:43:18.729Z,0.00
2022-09-09T02:44:18.824Z,0.00
2022-09-09T02:45:18.791Z,0.00
2022-09-09T02:46:18.840Z,0.00
2022-09-09T02:47:18.837Z,0.00
2022-09-09T02:48:18.862Z,0.00
2022-09-09T02:49:18.887Z,0.00
2022-09-09T02:50:18.916Z,0.00
2022-09-09T02:51:18.943Z,0.00
2022-09-09T02:52:18.968Z,0.00
2022-09-09T02:53:18.995Z,0.00
2022-09-09T02:54:19.034Z,0.00
2022-09-09T02:55:19.046Z,0.00
2022-09-09T02:56:19.075Z,0.00
2022-09-09T02:57:19.098Z,0.00
2022-09-09T02:58:19.125Z,0.00
2022-09-09T02:59:19.158Z,0.00
2022-09-09T03:00:19.179Z,0.00
2022-09-09T03:01:19.245Z,0.00
2022-09-09T03:02:19.254Z,0.00
2022-09-09T03:03:19.255Z,0.00
2022-09-09T03:04:19.280Z,0.00
2022-09-09T03:05:19.308Z,0.00
2022-09-09T03:06:26.507Z,0.00
2022-09-09T03:08:23.829Z,0.00
2022-09-09T03:09:23.378Z,0.00
2022-09-09T03:11:16.329Z,0.00
2022-09-09T03:12:16.337Z,0.00
2022-09-09T03:14:20.828Z,0.00
2022-09-09T03:15:20.384Z,0.00
2022-09-09T03:17:24.409Z,0.00
2022-09-09T03:18:24.422Z,0.00
2022-09-09T03:20:28.916Z,0.00
2022-09-09T03:21:28.487Z,0.00
2022-09-09T03:23:32.525Z,0.00
2022-09-09T03:24:32.541Z,0.00
2022-09-09T03:26:37.031Z,0.00
2022-09-09T03:27:36.575Z,0.00
2022-09-09T03:29:29.717Z,0.00
2022-09-09T03:30:29.739Z,0.00
2022-09-09T03:32:34.228Z,0.00
2022-09-09T03:33:33.777Z,0.00
2022-09-09T03:35:37.797Z,0.00
2022-09-09T03:36:37.819Z,0.00
2022-09-09T03:38:42.311Z,0.00
2022-09-09T03:39:41.886Z,0.00
2022-09-09T03:41:46.465Z,0.00
2022-09-09T03:42:46.106Z,0.00
2022-09-09T03:44:52.082Z,0.00
2022-09-09T03:45:50.209Z,0.00
2022-09-09T03:47:54.178Z,0.00
2022-09-09T03:48:54.189Z,0.00
2022-09-09T03:50:47.693Z,0.00
2022-09-09T03:51:47.146Z,0.00
2022-09-09T03:53:51.177Z,0.00
2022-09-09T03:54:51.191Z,0.00
2022-09-09T03:56:55.693Z,0.00
2022-09-09T03:57:55.239Z,0.00
2022-09-09T03:59:59.251Z,0.00
2022-09-09T04:00:59.317Z,0.00
2022-09-09T04:03:03.760Z,0.00
2022-09-09T04:04:03.313Z,0.00
2022-09-09T04:05:03.334Z,0.00
2022-09-09T04:06:03.359Z,0.00
2022-09-09T04:07:03.388Z,0.00
2022-09-09T04:08:03.424Z,0.00
2022-09-09T04:09:03.438Z,0.00
2022-09-09T04:10:03.465Z,0.00
2022-09-09T04:11:03.501Z,0.00
2022-09-09T04:12:03.519Z,0.00
2022-09-09T04:13:03.546Z,0.00
2022-09-09T04:14:03.575Z,0.00
2022-09-09T04:15:03.597Z,0.00
2022-09-09T04:16:03.666Z,0.00
2022-09-09T04:17:03.650Z,0.00
2022-09-09T04:18:03.675Z,0.00
2022-09-09T04:19:03.700Z,0.00
2022-09-09T04:20:03.730Z,0.00
2022-09-09T04:21:03.752Z,0.00
2022-09-09T04:22:03.781Z,0.00
2022-09-09T04:23:03.807Z,0.00
2022-09-09T04:24:03.836Z,4.00
2022-09-09T04:25:03.859Z,0.00
2022-09-09T04:26:03.890Z,4.00
2022-09-09T04:27:03.911Z,4.00
2022-09-09T04:28:03.938Z,4.00
2022-09-09T04:29:03.963Z,4.00
2022-09-09T04:30:03.992Z,8.00
2022-09-09T04:31:04.017Z,8.00
2022-09-09T04:32:04.114Z,8.00
2022-09-09T04:33:04.069Z,12.00
2022-09-09T04:34:04.098Z,16.00
2022-09-09T04:35:04.125Z,12.00
2022-09-09T04:36:04.150Z,16.00
2022-09-09T04:37:04.175Z,20.00
2022-09-09T04:38:04.222Z,24.00
2022-09-09T04:39:04.246Z,28.00
2022-09-09T04:40:04.328Z,36.00
2022-09-09T04:41:04.281Z,36.00
2022-09-09T04:42:04.308Z,44.00
2022-09-09T04:43:04.331Z,48.00
2022-09-09T04:44:04.362Z,52.00
2022-09-09T04:45:04.383Z,56.00
2022-09-09T04:46:04.500Z,64.00
2022-09-09T04:47:04.440Z,68.00
2022-09-09T04:48:04.466Z,80.00
2022-09-09T04:49:04.492Z,84.00
2022-09-09T04:50:04.511Z,92.00
2022-09-09T04:51:04.586Z,100.00
2022-09-09T04:52:04.566Z,108.00
2022-09-09T04:53:04.597Z,120.00
2022-09-09T04:54:04.617Z,136.00
2022-09-09T04:55:04.646Z,152.00
2022-09-09T04:56:04.676Z,168.00
2022-09-09T04:57:04.703Z,188.00
2022-09-09T04:58:04.726Z,204.00
2022-09-09T04:59:04.754Z,220.00
2022-09-09T05:00:04.779Z,244.00
2022-09-09T05:01:04.867Z,268.00
2022-09-09T05:02:04.914Z,288.00
2022-09-09T05:03:04.861Z,304.00
2022-09-09T05:04:04.887Z,324.00
2022-09-09T05:05:04.913Z,360.00
2022-09-09T05:06:04.939Z,396.00
2022-09-09T05:07:04.965Z,428.00
2022-09-09T05:08:04.992Z,460.00
2022-09-09T05:09:05.013Z,496.00
2022-09-09T05:10:05.043Z,528.00
2022-09-09T05:11:05.066Z,552.00
2022-09-09T05:12:05.095Z,584.00
2022-09-09T05:13:05.121Z,620.00
2022-09-09T05:14:05.149Z,660.00
2022-09-09T05:15:05.178Z,676.00
2022-09-09T05:16:05.233Z,692.00
2022-09-09T05:17:05.226Z,700.00
2022-09-09T05:18:05.252Z,700.00
2022-09-09T05:19:05.290Z,696.00
2022-09-09T05:20:09.547Z,660.00
2022-09-09T05:21:05.333Z,584.00
2022-09-09T05:22:05.356Z,592.00
2022-09-09T05:23:05.387Z,636.00
2022-09-09T05:24:05.413Z,668.00
2022-09-09T05:25:05.440Z,696.00
2022-09-09T05:26:05.463Z,728.00
2022-09-09T05:27:05.494Z,760.00
2022-09-09T05:28:05.515Z,800.00
2022-09-09T05:29:05.545Z,828.00
2022-09-09T05:30:05.575Z,836.00
2022-09-09T05:31:05.668Z,848.00
2022-09-09T05:32:05.618Z,860.00
2022-09-09T05:33:05.651Z,880.00
2022-09-09T05:34:05.679Z,904.00
2022-09-09T05:35:05.705Z,948.00
2022-09-09T05:36:05.731Z,1004.00
2022-09-09T05:37:05.757Z,1084.00
2022-09-09T05:38:05.791Z,1180.00
2022-09-09T05:39:05.815Z,1280.00
2022-09-09T05:40:05.884Z,1384.00
2022-09-09T05:41:05.865Z,1476.00
2022-09-09T05:42:05.890Z,1552.00
2022-09-09T05:43:05.917Z,1584.00
2022-09-09T05:44:05.942Z,1592.00
2022-09-09T05:45:05.971Z,1576.00
2022-09-09T05:46:05.996Z,1580.00
2022-09-09T05:47:06.140Z,1596.00
2022-09-09T05:48:06.051Z,1588.00
2022-09-09T05:49:06.079Z,1544.00
2022-09-09T05:50:06.106Z,1496.00
2022-09-09T05:51:06.128Z,1508.00
2022-09-09T05:52:06.158Z,1564.00
2022-09-09T05:53:06.183Z,1624.00
2022-09-09T05:54:06.211Z,1680.00
2022-09-09T05:55:06.263Z,1760.00
2022-09-09T05:56:06.262Z,1896.00
2022-09-09T05:57:06.289Z,2084.00
2022-09-09T05:58:06.314Z,2296.00
2022-09-09T05:59:06.341Z,2472.00
2022-09-09T06:00:06.386Z,2576.00
2022-09-09T06:01:06.396Z,2704.00
2022-09-09T06:02:06.573Z,2764.00
2022-09-09T06:03:06.610Z,2724.00
2022-09-09T06:04:06.475Z,2556.00
2022-09-09T06:05:06.504Z,2356.00
2022-09-09T06:06:06.531Z,2220.00
2022-09-09T06:07:06.569Z,2152.00
2022-09-09T06:08:06.600Z,2216.00
2022-09-09T06:09:06.613Z,2368.00
2022-09-09T06:10:06.637Z,2548.00
2022-09-09T06:11:06.679Z,2752.00
2022-09-09T06:12:06.692Z,2840.00
2022-09-09T06:13:06.717Z,2812.00
2022-09-09T06:14:06.747Z,2728.00
2022-09-09T06:15:06.775Z,2676.00
2022-09-09T06:16:06.834Z,2632.00
2022-09-09T06:17:06.864Z,2640.00
2022-09-09T06:18:06.855Z,2692.00
2022-09-09T06:19:06.882Z,2824.00
2022-09-09T06:20:07.048Z,2992.00
2022-09-09T06:21:06.938Z,3172.00
2022-09-09T06:22:06.978Z,3380.00
2022-09-09T06:23:06.988Z,3612.00
2022-09-09T06:24:07.019Z,3832.00
2022-09-09T06:25:07.047Z,4072.00
2022-09-09T06:26:07.070Z,4372.00
2022-09-09T06:27:07.099Z,4628.00
2022-09-09T06:28:07.142Z,4860.00
2022-09-09T06:29:07.158Z,5116.00
2022-09-09T06:30:07.183Z,5256.00
2022-09-09T06:31:07.233Z,5204.00
2022-09-09T06:32:07.236Z,5144.00
2022-09-09T06:33:07.267Z,5140.00
2022-09-09T06:34:07.291Z,5172.00
2022-09-09T06:35:07.314Z,5236.00
2022-09-09T06:36:07.342Z,5284.00
2022-09-09T06:37:07.374Z,5280.00
2022-09-09T06:38:07.403Z,5576.00
2022-09-09T06:39:12.217Z,6616.00
2022-09-09T06:40:07.522Z,5748.00
2022-09-09T06:41:07.485Z,5704.00
2022-09-09T06:42:07.510Z,5740.00
2022-09-09T06:43:07.541Z,5764.00
2022-09-09T06:44:07.562Z,5832.00
2022-09-09T06:45:07.595Z,5892.00
2022-09-09T06:46:07.631Z,5880.00
2022-09-09T06:47:07.681Z,5900.00
2022-09-09T06:48:07.677Z,5960.00
2022-09-09T06:49:07.707Z,6068.00
2022-09-09T06:50:07.736Z,6164.00
2022-09-09T06:51:07.760Z,6176.00
2022-09-09T06:52:07.788Z,6128.00
2022-09-09T06:53:07.819Z,6100.00
2022-09-09T06:54:07.853Z,6144.00
2022-09-09T06:55:07.876Z,6144.00
2022-09-09T06:56:07.898Z,6068.00
2022-09-09T06:57:33.675Z,5924.00
2022-09-09T06:58:07.956Z,5716.00
2022-09-09T06:59:07.988Z,5508.00
2022-09-09T07:00:08.014Z,5272.00
2022-09-09T07:01:08.100Z,5020.00
2022-09-09T07:02:08.118Z,4808.00
2022-09-09T07:03:08.101Z,4768.00
2022-09-09T07:04:08.125Z,4868.00
2022-09-09T07:05:08.160Z,5076.00
2022-09-09T07:06:08.181Z,5312.00
2022-09-09T07:07:08.211Z,5556.00
2022-09-09T07:08:08.242Z,5780.00
2022-09-09T07:09:08.267Z,5984.00
2022-09-09T07:10:08.297Z,6104.00
2022-09-09T07:11:12.261Z,6384.00
2022-09-09T07:12:08.350Z,6652.00
2022-09-09T07:13:08.388Z,6716.00
2022-09-09T07:14:08.410Z,6900.00
2022-09-09T07:15:08.442Z,7036.00
2022-09-09T07:16:08.512Z,6988.00
2022-09-09T07:17:08.495Z,6996.00
2022-09-09T07:18:08.523Z,6936.00
2022-09-09T07:19:08.554Z,6732.00
2022-09-09T07:20:08.580Z,6580.00
2022-09-09T07:21:08.607Z,6548.00
2022-09-09T07:22:08.637Z,6504.00
2022-09-09T07:23:08.667Z,6612.00
2022-09-09T07:24:08.698Z,6928.00
2022-09-09T07:25:08.721Z,7216.00
2022-09-09T07:26:08.750Z,7472.00
2022-09-09T07:27:08.780Z,7744.00
2022-09-09T07:28:08.808Z,7780.00
2022-09-09T07:29:08.843Z,7780.00
2022-09-09T07:30:08.867Z,7876.00
2022-09-09T07:31:08.943Z,8004.00
2022-09-09T07:32:09.019Z,8120.00
2022-09-09T07:33:08.960Z,8260.00
2022-09-09T07:34:09.039Z,8364.00
2022-09-09T07:35:09.010Z,8524.00
2022-09-09T07:36:09.048Z,8720.00
2022-09-09T07:37:09.071Z,8916.00
2022-09-09T07:38:09.099Z,9048.00
2022-09-09T07:39:09.129Z,9220.00
2022-09-09T07:40:09.176Z,9376.00
2022-09-09T07:41:09.185Z,9492.00
2022-09-09T07:42:09.212Z,9692.00
2022-09-09T07:43:09.243Z,9928.00
2022-09-09T07:44:09.271Z,10244.00
2022-09-09T07:45:09.302Z,10576.00
2022-09-09T07:46:09.356Z,10832.00
2022-09-09T07:47:09.359Z,10964.00
2022-09-09T07:48:09.388Z,10976.00
2022-09-09T07:49:09.418Z,10816.00
2022-09-09T07:50:09.449Z,10676.00
2022-09-09T07:51:09.484Z,10672.00
2022-09-09T07:52:09.516Z,10636.00
2022-09-09T07:53:09.535Z,10608.00
2022-09-09T07:54:09.566Z,10744.00
2022-09-09T07:55:09.595Z,10876.00
2022-09-09T07:56:09.623Z,10968.00
2022-09-09T07:57:09.652Z,11056.00
2022-09-09T07:58:09.684Z,11184.00
2022-09-09T07:59:09.712Z,11308.00
2022-09-09T08:00:09.742Z,11460.00
2022-09-09T08:01:09.771Z,11512.00
2022-09-09T08:02:09.801Z,11568.00
2022-09-09T08:03:09.941Z,11612.00
2022-09-09T08:04:09.860Z,11676.00
2022-09-09T08:05:09.890Z,11852.00
2022-09-09T08:06:09.919Z,12040.00
2022-09-09T08:07:09.950Z,12248.00
2022-09-09T08:08:09.985Z,12404.00
2022-09-09T08:09:10.009Z,12484.00
2022-09-09T08:10:10.040Z,12484.00
2022-09-09T08:11:10.070Z,12416.00
2022-09-09T08:12:10.105Z,12300.00
2022-09-09T08:13:17.792Z,12020.00
2022-09-09T08:14:10.164Z,11500.00
2022-09-09T08:15:10.192Z,11196.00
2022-09-09T08:16:10.253Z,11180.00
2022-09-09T08:17:10.254Z,10924.00
2022-09-09T08:18:10.284Z,10796.00
2022-09-09T08:19:10.312Z,10328.00
2022-09-09T08:20:10.345Z,9944.00
2022-09-09T08:21:10.379Z,9696.00
2022-09-09T08:22:10.406Z,9568.00
2022-09-09T08:23:10.437Z,9712.00
2022-09-09T08:24:10.467Z,9468.00
2022-09-09T08:25:10.495Z,9252.00
2022-09-09T08:26:10.579Z,8892.00
2022-09-09T08:27:10.553Z,8604.00
2022-09-09T08:28:10.589Z,8628.00
2022-09-09T08:29:10.615Z,8688.00
2022-09-09T08:30:10.649Z,8772.00
2022-09-09T08:31:10.825Z,8764.00
2022-09-09T08:32:10.710Z,8504.00
2022-09-09T08:33:10.741Z,8200.00
2022-09-09T08:34:10.769Z,7408.00
2022-09-09T08:35:10.805Z,6600.00
2022-09-09T08:36:10.829Z,5944.00
2022-09-09T08:37:10.860Z,6228.00
2022-09-09T08:38:11.257Z,6628.00
2022-09-09T08:39:10.919Z,6696.00
2022-09-09T08:40:10.980Z,7132.00
2022-09-09T08:41:10.981Z,9596.00
2022-09-09T08:42:11.013Z,11056.00
2022-09-09T08:43:11.038Z,11340.00
2022-09-09T08:44:11.072Z,10920.00
2022-09-09T08:45:11.102Z,10260.00
2022-09-09T08:46:11.159Z,8940.00
2022-09-09T08:47:11.163Z,7992.00
2022-09-09T08:48:11.193Z,8448.00
2022-09-09T08:49:11.239Z,10076.00
2022-09-09T08:50:11.256Z,11120.00
2022-09-09T08:51:11.288Z,12156.00
2022-09-09T08:52:11.314Z,12012.00
2022-09-09T08:53:11.344Z,9636.00
2022-09-09T08:54:11.375Z,8348.00
2022-09-09T08:55:11.405Z,7352.00
2022-09-09T08:56:11.436Z,5448.00
2022-09-09T08:57:11.469Z,4364.00
2022-09-09T08:58:11.502Z,3632.00
2022-09-09T08:59:11.530Z,3400.00
2022-09-09T09:00:11.561Z,4376.00
2022-09-09T09:01:11.699Z,4968.00
2022-09-09T09:02:16.394Z,5748.00
2022-09-09T09:03:11.690Z,6820.00
2022-09-09T09:04:11.731Z,8812.00
2022-09-09T09:05:11.711Z,9220.00
2022-09-09T09:06:11.744Z,9164.00
2022-09-09T09:07:11.768Z,9948.00
2022-09-09T09:08:11.798Z,10320.00
2022-09-09T09:09:11.827Z,10424.00
2022-09-09T09:10:24.201Z,11136.00
2022-09-09T09:11:19.059Z,10600.00
2022-09-09T09:13:16.388Z,6536.00
2022-09-09T09:14:15.979Z,5460.00
2022-09-09T09:16:20.011Z,4612.00
2022-09-09T09:17:19.995Z,4364.00
2022-09-09T09:19:24.490Z,4764.00
2022-09-09T09:20:24.043Z,4224.00
2022-09-09T09:22:28.099Z,5108.00
2022-09-09T09:23:28.106Z,4948.00
2022-09-09T09:25:32.614Z,5004.00
2022-09-09T09:26:32.168Z,5852.00
2022-09-09T09:28:36.453Z,10564.00
2022-09-09T09:29:50.588Z,11936.00
2022-09-09T09:31:29.775Z,9964.00
2022-09-09T09:32:29.197Z,12692.00
2022-09-09T09:34:33.250Z,7536.00
2022-09-09T09:35:37.322Z,5852.00
2022-09-09T09:37:26.758Z,6544.00
2022-09-09T09:40:30.472Z,7188.00
2022-09-09T09:41:30.499Z,6012.00
2022-09-09T09:43:35.059Z,5256.00
2022-09-09T09:44:34.544Z,5028.00
2022-09-09T09:46:38.583Z,5760.00
2022-09-09T09:47:38.594Z,5568.00
2022-09-09T09:49:43.599Z,4528.00
2022-09-09T09:50:42.646Z,4452.00
2022-09-09T09:52:46.675Z,4480.00
2022-09-09T09:53:46.692Z,4616.00
2022-09-09T09:55:51.218Z,5432.00
2022-09-09T09:56:50.754Z,5168.00
2022-09-09T09:58:54.780Z,5220.00
2022-09-09T09:59:54.801Z,4840.00
2022-09-09T10:01:59.376Z,4628.00
2022-09-09T10:02:58.844Z,4064.00
2022-09-09T10:05:02.926Z,3828.00
2022-09-09T10:06:02.896Z,4004.00
2022-09-09T10:08:07.399Z,5600.00
2022-09-09T10:09:06.938Z,5472.00
2022-09-09T10:10:59.888Z,4792.00
2022-09-09T10:11:59.911Z,4580.00
2022-09-09T10:14:04.412Z,3532.00
2022-09-09T10:15:03.965Z,3684.00
2022-09-09T10:17:07.994Z,5284.00
2022-09-09T10:18:08.007Z,5144.00
2022-09-09T10:20:12.509Z,5044.00
2022-09-09T10:21:12.081Z,4668.00
2022-09-09T10:23:16.101Z,5160.00
2022-09-09T10:24:16.160Z,5560.00
2022-09-09T10:26:20.625Z,7684.00
2022-09-09T10:27:20.179Z,7812.00
2022-09-09T10:29:24.205Z,9644.00
2022-09-09T10:30:24.223Z,10548.00
2022-09-09T10:32:28.727Z,8004.00
2022-09-09T10:33:28.274Z,10112.00
2022-09-09T10:35:32.300Z,6144.00
2022-09-09T10:36:32.316Z,5496.00
2022-09-09T10:38:36.829Z,6360.00
2022-09-09T10:39:40.546Z,6380.00
2022-09-09T10:41:29.336Z,6316.00
2022-09-09T10:42:29.357Z,7928.00
2022-09-09T10:44:33.862Z,9064.00
2022-09-09T10:45:33.410Z,6280.00
2022-09-09T10:47:37.429Z,4564.00
2022-09-09T10:48:37.457Z,4260.00
2022-09-09T10:50:50.339Z,4756.00
2022-09-09T10:51:30.625Z,6944.00
2022-09-09T10:53:34.713Z,8372.00
2022-09-09T10:54:34.678Z,8648.00
2022-09-09T10:56:40.711Z,5416.00
2022-09-09T10:57:38.727Z,5632.00
2022-09-09T10:59:31.889Z,5820.00
2022-09-09T11:00:31.914Z,6016.00
2022-09-09T11:02:36.418Z,4696.00
2022-09-09T11:03:36.039Z,4752.00
2022-09-09T11:05:39.997Z,4992.00
2022-09-09T11:06:40.074Z,4088.00
2022-09-09T11:08:44.527Z,5972.00
2022-09-09T11:09:44.069Z,6304.00
2022-09-09T11:11:48.106Z,7556.00
2022-09-09T11:12:48.121Z,9320.00
2022-09-09T11:14:52.625Z,7812.00
2022-09-09T11:15:52.175Z,5808.00
2022-09-09T11:17:56.206Z,6392.00
2022-09-09T11:18:56.231Z,7332.00
2022-09-09T11:20:49.712Z,7508.00
2022-09-09T11:21:49.198Z,6016.00
2022-09-09T11:23:53.226Z,5360.00
2022-09-09T11:24:53.273Z,6096.00
2022-09-09T11:26:57.749Z,8008.00
2022-09-09T11:27:57.303Z,6596.00
2022-09-09T11:30:01.331Z,5792.00
2022-09-09T11:31:01.392Z,5152.00
2022-09-09T11:33:05.861Z,5320.00
2022-09-09T11:34:05.418Z,5976.00
2022-09-09T11:36:09.447Z,5480.00
2022-09-09T11:37:09.470Z,4680.00
2022-09-09T11:39:13.974Z,5736.00
2022-09-09T11:40:13.537Z,6836.00
2022-09-09T11:42:17.601Z,8436.00
2022-09-09T11:43:17.564Z,8516.00
2022-09-09T11:45:22.072Z,7860.00
2022-09-09T11:46:21.639Z,6316.00
2022-09-09T11:48:25.654Z,4240.00
2022-09-09T11:49:25.667Z,4116.00
2022-09-09T11:51:19.153Z,5460.00
2022-09-09T11:52:18.638Z,6496.00
2022-09-09T11:54:22.672Z,6772.00
2022-09-09T11:55:22.689Z,8804.00
2022-09-09T11:57:27.706Z,14084.00
2022-09-09T11:58:26.748Z,12596.00
2022-09-09T12:00:30.775Z,8152.00
2022-09-09T12:01:30.795Z,8488.00
2022-09-09T12:03:35.301Z,10588.00
2022-09-09T12:04:34.931Z,9856.00
2022-09-09T12:06:38.890Z,9720.00
2022-09-09T12:07:38.912Z,10516.00
2022-09-09T12:09:43.417Z,9320.00
2022-09-09T12:10:42.966Z,9988.00
2022-09-09T12:12:39.166Z,8440.00
2022-09-09T12:13:36.142Z,7644.00
2022-09-09T12:15:40.647Z,6828.00
2022-09-09T12:16:40.258Z,7372.00
2022-09-09T12:18:33.455Z,7576.00
2022-09-09T12:19:33.392Z,7060.00
2022-09-09T12:21:26.880Z,6444.00
2022-09-09T12:22:26.370Z,6440.00
2022-09-09T12:24:30.399Z,7048.00
2022-09-09T12:25:30.423Z,6968.00
2022-09-09T12:27:34.927Z,6392.00
2022-09-09T12:28:34.488Z,7408.00
2022-09-09T12:30:38.544Z,8480.00
2022-09-09T12:31:40.207Z,9568.00
2022-09-09T12:33:43.049Z,8840.00
2022-09-09T12:34:42.628Z,7612.00
2022-09-09T12:36:49.616Z,6988.00
2022-09-09T12:37:46.655Z,8032.00
2022-09-09T12:39:51.182Z,8756.00
2022-09-09T12:40:50.708Z,7812.00
2022-09-09T12:42:54.744Z,6696.00
2022-09-09T12:43:55.701Z,6852.00
2022-09-09T12:45:59.335Z,7016.00
2022-09-09T12:46:58.822Z,6764.00
2022-09-09T12:49:03.228Z,6932.00
2022-09-09T12:50:02.885Z,6572.00
2022-09-09T12:52:07.377Z,6484.00
2022-09-09T12:53:06.923Z,6816.00
2022-09-09T12:55:10.957Z,7112.00
2022-09-09T12:56:10.978Z,7248.00
2022-09-09T12:58:15.491Z,6644.00
2022-09-09T12:59:15.049Z,6236.00
2022-09-09T13:01:08.626Z,5532.00
2022-09-09T13:02:08.637Z,5128.00
2022-09-09T13:03:08.552Z,5388.00
2022-09-09T13:04:08.582Z,5100.00
2022-09-09T13:05:08.667Z,5400.00
2022-09-09T13:06:08.645Z,6124.00
2022-09-09T13:07:08.678Z,7068.00
2022-09-09T13:08:08.710Z,7864.00
2022-09-09T13:09:08.813Z,9248.00
2022-09-09T13:10:08.775Z,9940.00
2022-09-09T13:11:08.808Z,8708.00
2022-09-09T13:12:08.839Z,8772.00
2022-09-09T13:13:08.869Z,9892.00
2022-09-09T13:14:08.901Z,10172.00
2022-09-09T13:15:08.934Z,9188.00
2022-09-09T13:16:08.997Z,8320.00
2022-09-09T13:17:09.005Z,7588.00
2022-09-09T13:18:09.032Z,6632.00
2022-09-09T13:19:09.085Z,7000.00
2022-09-09T13:20:09.103Z,6712.00
2022-09-09T13:21:09.125Z,6588.00
2022-09-09T13:22:09.160Z,6112.00
2022-09-09T13:23:09.191Z,5512.00
2022-09-09T13:24:09.226Z,5344.00
2022-09-09T13:25:09.256Z,5048.00
2022-09-09T13:26:09.289Z,4708.00
2022-09-09T13:27:09.323Z,4436.00
2022-09-09T13:28:09.353Z,4236.00
2022-09-09T13:29:09.387Z,4240.00
2022-09-09T13:30:09.412Z,4164.00
2022-09-09T13:31:09.486Z,4024.00
2022-09-09T13:32:09.481Z,4008.00
2022-09-09T13:33:09.514Z,3944.00
2022-09-09T13:34:09.546Z,3856.00
2022-09-09T13:35:09.580Z,3748.00
2022-09-09T13:36:09.610Z,3700.00
2022-09-09T13:37:09.640Z,3700.00
2022-09-09T13:38:09.673Z,3632.00
2022-09-09T13:39:09.710Z,3984.00
2022-09-09T13:40:09.771Z,4768.00
2022-09-09T13:41:09.912Z,5072.00
2022-09-09T13:42:09.801Z,5296.00
2022-09-09T13:43:09.836Z,5684.00
2022-09-09T13:44:09.864Z,6524.00
2022-09-09T13:45:09.893Z,6864.00
2022-09-09T13:46:09.978Z,6608.00
2022-09-09T13:47:10.889Z,6136.00
2022-09-09T13:48:09.998Z,5952.00
2022-09-09T13:49:10.024Z,5944.00
2022-09-09T13:50:10.056Z,5960.00
2022-09-09T13:51:10.087Z,6164.00
2022-09-09T13:52:10.122Z,6088.00
2022-09-09T13:53:10.152Z,6416.00
2022-09-09T13:54:10.182Z,6692.00
2022-09-09T13:55:10.214Z,7060.00
2022-09-09T13:56:10.253Z,7652.00
2022-09-09T13:57:10.279Z,8296.00
2022-09-09T13:58:10.307Z,8316.00
2022-09-09T13:59:10.338Z,7380.00
2022-09-09T14:00:10.373Z,6636.00
2022-09-09T14:01:10.431Z,6448.00
2022-09-09T14:02:10.521Z,6700.00
2022-09-09T14:03:10.467Z,6952.00
2022-09-09T14:04:10.497Z,7080.00
2022-09-09T14:05:10.532Z,6940.00
2022-09-09T14:06:10.798Z,6560.00
2022-09-09T14:07:10.595Z,6168.00
2022-09-09T14:08:10.626Z,5820.00
2022-09-09T14:09:10.659Z,5736.00